Time;durP1;ratioP1;P1;durP2;ratioP2;P2;SDS_P1;SDS_P2;PMS_P1;PMS_P2;Temp;Humidity;BMP_temperature;BMP_pressure;BME280_temperature;BME280_humidity;BME280_pressure;Samples;Min_cycle;Max_cycle;Signal;HPM_P1;HPM_P2
2023/08/06 00:00:59;;;;;;;9.93;8.63;;;;;;;25.18;66.16;99878.81;1688661;85;21041;-65
2023/08/06 00:03:28;;;;;;;11.90;8.63;;;;;;;25.15;66.36;99880.83;1688404;83;21077;-63
2023/08/06 00:05:58;;;;;;;10.15;8.78;;;;;;;25.13;66.48;99877.50;1686124;84;21116;-64
2023/08/06 00:08:26;;;;;;;9.85;8.50;;;;;;;25.10;66.61;99872.51;1685654;85;21453;-64
2023/08/06 00:10:55;;;;;;;9.78;8.75;;;;;;;25.07;66.72;99875.35;1720181;83;21042;-64
2023/08/06 00:13:24;;;;;;;10.38;8.48;;;;;;;25.05;66.85;99871.19;1707492;84;21058;-63
2023/08/06 00:15:53;;;;;;;13.13;9.38;;;;;;;25.01;66.92;99867.34;1720143;83;21030;-65
2023/08/06 00:18:22;;;;;;;10.88;8.68;;;;;;;24.99;67.01;99864.01;1707345;82;21023;-64
2023/08/06 00:20:50;;;;;;;9.58;8.55;;;;;;;24.98;67.17;99861.77;1720423;83;21082;-63
2023/08/06 00:23:22;;;;;;;12.15;8.43;;;;;;;24.96;67.28;99864.02;1712989;83;21054;-65
2023/08/06 00:25:50;;;;;;;11.55;8.13;;;;;;;24.95;67.40;99864.59;1720220;82;21073;-65
2023/08/06 00:28:18;;;;;;;13.32;8.50;;;;;;;24.94;67.45;99864.33;1707647;84;21050;-65
2023/08/06 00:30:52;;;;;;;10.60;8.68;;;;;;;24.91;67.50;99856.53;1720359;83;21002;-63
2023/08/06 00:33:22;;;;;;;10.30;9.20;;;;;;;24.94;67.55;99860.12;1690407;84;21030;-66
2023/08/06 00:35:51;;;;;;;10.32;9.00;;;;;;;24.93;67.51;99862.66;1720150;83;21065;-64
2023/08/06 00:38:19;;;;;;;11.83;9.08;;;;;;;24.93;67.48;99855.66;1707511;83;21102;-64
2023/08/06 00:40:49;;;;;;;9.70;8.70;;;;;;;24.94;67.49;99855.92;1720184;83;21506;-64
2023/08/06 00:43:17;;;;;;;10.00;8.75;;;;;;;24.96;67.40;99856.44;1707431;83;21495;-64
2023/08/06 00:45:47;;;;;;;9.58;8.35;;;;;;;24.96;67.37;99854.20;1720154;83;21462;-65
2023/08/06 00:48:16;;;;;;;10.08;7.87;;;;;;;24.95;67.41;99847.77;1707672;82;21454;-65
2023/08/06 00:50:47;;;;;;;10.55;8.68;;;;;;;24.95;67.47;99848.34;1720229;82;21057;-64
2023/08/06 00:53:15;;;;;;;10.85;9.00;;;;;;;24.95;67.44;99849.74;1707525;84;21094;-65
2023/08/06 00:55:45;;;;;;;11.08;9.28;;;;;;;24.94;67.40;99848.91;1720174;82;21495;-65
2023/08/06 00:58:14;;;;;;;11.88;8.88;;;;;;;24.93;67.24;99844.45;1707687;82;21058;-65
2023/08/06 01:00:43;;;;;;;12.90;9.28;;;;;;;24.90;67.27;99840.85;1720391;82;21156;-64
2023/08/06 01:03:12;;;;;;;11.78;9.03;;;;;;;24.87;67.31;99842.87;1707498;84;21463;-64
2023/08/06 01:05:42;;;;;;;11.53;8.60;;;;;;;24.86;67.38;99838.41;1720194;82;21107;-67
2023/08/06 01:08:37;;;;;;;12.40;8.83;;;;;;;24.85;67.42;99840.94;1707652;83;21039;-65
2023/08/06 01:11:44;;;;;;;14.68;9.18;;;;;;;24.86;67.35;99839.80;1720216;82;21022;-65
2023/08/06 01:14:28;;;;;;;10.58;8.60;;;;;;;24.84;67.29;99839.27;1707528;84;21111;-65
2023/08/06 01:16:58;;;;;;;12.50;9.03;;;;;;;24.84;67.26;99831.44;1720176;83;21197;-65
2023/08/06 01:19:27;;;;;;;11.10;9.30;;;;;;;24.83;67.27;99832.01;1707772;83;21078;-64
2023/08/06 01:21:55;;;;;;;10.23;9.13;;;;;;;24.84;67.21;99837.05;1720404;83;21062;-64
2023/08/06 01:24:24;;;;;;;10.05;8.60;;;;;;;24.83;67.12;99833.41;1707442;82;21485;-65
2023/08/06 01:27:06;;;;;;;9.75;8.75;;;;;;;24.84;67.09;99824.43;1720120;83;21512;-64
2023/08/06 01:29:42;;;;;;;11.25;8.60;;;;;;;24.82;67.15;99826.14;1707641;84;21019;-64
2023/08/06 01:32:12;;;;;;;9.33;8.30;;;;;;;24.78;67.27;99826.48;1720198;82;21626;-64
2023/08/06 01:34:42;;;;;;;16.57;8.68;;;;;;;24.75;67.26;99817.86;1707459;84;21934;-64
2023/08/06 01:37:11;;;;;;;9.43;8.50;;;;;;;24.74;67.24;99824.03;1720181;82;21055;-65
2023/08/06 01:39:42;;;;;;;13.72;8.80;;;;;;;24.77;67.14;99822.59;1707480;83;21003;-64
2023/08/06 01:42:11;;;;;;;10.38;8.55;;;;;;;24.76;67.10;99811.95;1720209;83;21502;-64
2023/08/06 01:44:42;;;;;;;10.40;8.68;;;;;;;24.77;67.11;99818.39;1707411;84;21018;-64
2023/08/06 01:47:11;;;;;;;12.63;8.83;;;;;;;24.77;66.96;99816.42;1720320;83;21022;-64
2023/08/06 01:49:40;;;;;;;11.88;8.40;;;;;;;24.76;66.97;99811.95;1707487;83;21545;-65
2023/08/06 01:52:09;;;;;;;10.80;8.68;;;;;;;24.76;66.74;99817.55;1720337;83;21070;-65
2023/08/06 01:54:38;;;;;;;11.95;8.43;;;;;;;24.76;66.61;99803.55;1707464;83;21506;-65
2023/08/06 01:57:07;;;;;;;11.18;8.58;;;;;;;24.76;66.54;99804.95;1720466;83;21026;-64
2023/08/06 01:59:36;;;;;;;12.25;7.83;;;;;;;24.76;66.49;99798.51;1707453;83;21482;-64
2023/08/06 02:02:05;;;;;;;10.38;8.75;;;;;;;24.78;66.24;99796.23;1720365;83;21054;-63
2023/08/06 02:04:34;;;;;;;10.40;8.20;;;;;;;24.78;66.23;99793.43;1707444;83;21059;-64
2023/08/06 02:07:04;;;;;;;9.50;8.50;;;;;;;24.80;65.96;99791.16;1720183;82;21058;-64
2023/08/06 02:09:35;;;;;;;11.97;8.80;;;;;;;24.77;65.96;99792.59;1707700;84;21114;-64
2023/08/06 02:12:05;;;;;;;10.48;7.83;;;;;;;24.76;65.94;99797.94;1720124;83;21057;-64
2023/08/06 02:14:34;;;;;;;12.03;8.70;;;;;;;24.76;65.86;99793.73;1707685;83;21022;-64
2023/08/06 02:17:03;;;;;;;9.43;8.03;;;;;;;24.77;65.93;99793.17;1720138;82;21498;-64
2023/08/06 02:19:32;;;;;;;10.55;8.43;;;;;;;24.77;65.83;99798.77;1707616;84;21066;-64
2023/08/06 02:22:02;;;;;;;10.08;8.90;;;;;;;24.75;65.86;99797.68;1720353;82;21026;-64
2023/08/06 02:24:31;;;;;;;13.78;8.70;;;;;;;24.75;65.86;99801.05;1707517;84;21054;-65
2023/08/06 02:27:00;;;;;;;12.18;8.55;;;;;;;24.73;65.88;99803.33;1720404;83;21082;-63
2023/08/06 02:29:28;;;;;;;12.03;8.38;;;;;;;24.69;66.04;99800.27;1707469;84;21026;-64
2023/08/06 02:31:57;;;;;;;11.03;9.03;;;;;;;24.66;66.10;99804.52;1720240;83;21490;-64
2023/08/06 02:34:28;;;;;;;10.58;8.80;;;;;;;24.66;66.01;99805.09;1707566;82;21046;-65
2023/08/06 02:36:57;;;;;;;11.18;8.65;;;;;;;24.65;66.08;99800.05;1720481;83;21018;-64
2023/08/06 02:39:26;;;;;;;11.05;8.70;;;;;;;24.65;66.11;99807.62;1707488;83;21015;-64
2023/08/06 02:41:55;;;;;;;10.43;8.38;;;;;;;24.65;66.15;99803.42;1720328;82;21109;-64
2023/08/06 02:44:29;;;;;;;11.95;8.90;;;;;;;24.65;66.05;99809.02;1707474;84;21054;-64
2023/08/06 02:46:58;;;;;;;10.40;8.38;;;;;;;24.64;66.05;99798.95;1720216;83;21026;-64
2023/08/06 02:49:27;;;;;;;10.45;8.60;;;;;;;24.64;66.00;99803.99;1707748;82;21007;-63
2023/08/06 02:51:57;;;;;;;11.45;8.83;;;;;;;24.64;65.94;99803.99;1720544;83;21489;-64
2023/08/06 02:54:27;;;;;;;11.30;8.85;;;;;;;24.63;65.86;99805.70;1707643;83;21455;-65
2023/08/06 02:56:56;;;;;;;9.35;8.38;;;;;;;24.61;65.95;99802.37;1720409;83;21219;-64
2023/08/06 02:59:27;;;;;;;10.55;8.45;;;;;;;24.58;66.09;99808.58;1707288;84;21110;-64
2023/08/06 03:02:07;;;;;;;12.85;8.15;;;;;;;24.57;66.22;99813.35;1720021;83;21423;-65
2023/08/06 03:04:41;;;;;;;12.20;8.83;;;;;;;24.55;66.26;99807.22;1697720;84;21115;-65
2023/08/06 03:07:11;;;;;;;13.15;8.83;;;;;;;24.54;66.36;99798.55;1717590;82;21121;-64
2023/08/06 03:09:41;;;;;;;13.65;8.63;;;;;;;24.56;66.32;99795.45;1716793;83;21030;-64
2023/08/06 03:12:10;;;;;;;10.82;9.35;;;;;;;24.57;66.24;99802.72;1717484;83;21034;-64
2023/08/06 03:14:40;;;;;;;17.07;9.38;;;;;;;24.58;66.15;99804.38;1717610;83;21042;-64
2023/08/06 03:17:09;;;;;;;11.55;8.70;;;;;;;24.59;66.13;99804.64;1717405;83;21085;-65
2023/08/06 03:19:38;;;;;;;11.63;8.58;;;;;;;24.57;66.17;99806.92;1717594;83;21066;-64
2023/08/06 03:22:07;;;;;;;14.73;8.88;;;;;;;24.56;66.19;99799.08;1717603;82;21042;-65
2023/08/06 03:24:36;;;;;;;13.05;8.55;;;;;;;24.58;66.19;99795.98;1690931;83;21065;-63
2023/08/06 03:27:25;;;;;;;10.48;8.30;;;;;;;24.59;66.26;99795.67;1717443;83;21038;-64
2023/08/06 03:29:55;;;;;;;11.50;8.80;;;;;;;24.60;66.15;99793.13;1663475;85;21474;-64
2023/08/06 03:32:25;;;;;;;11.15;8.88;;;;;;;24.59;66.08;99791.47;1663769;85;21106;-64
2023/08/06 03:34:55;;;;;;;11.10;8.60;;;;;;;24.59;66.14;99797.07;1622604;88;21102;-65
2023/08/06 03:37:26;;;;;;;14.25;8.70;;;;;;;24.61;66.15;99789.77;1622715;88;21010;-65
2023/08/06 03:39:54;;;;;;;13.10;9.18;;;;;;;24.62;66.03;99794.23;1622641;88;21522;-65
2023/08/06 03:42:24;;;;;;;9.68;8.68;;;;;;;24.64;65.91;99789.16;1622620;87;21110;-65
2023/08/06 03:44:52;;;;;;;10.15;8.23;;;;;;;24.63;65.96;99788.89;1622542;88;21083;-65
2023/08/06 03:47:21;;;;;;;11.97;8.68;;;;;;;24.63;66.08;99789.72;1542987;93;21121;-65
2023/08/06 03:49:51;;;;;;;10.85;8.38;;;;;;;24.66;66.01;99788.28;1582597;91;21162;-65
2023/08/06 03:52:21;;;;;;;11.00;8.43;;;;;;;24.69;65.91;99782.06;1582788;90;21079;-64
2023/08/06 03:54:50;;;;;;;9.73;8.60;;;;;;;24.72;65.72;99780.64;1582747;89;21116;-64
2023/08/06 03:57:19;;;;;;;11.03;8.53;;;;;;;24.69;65.57;99786.27;1582671;89;21110;-65
2023/08/06 03:59:49;;;;;;;11.55;8.93;;;;;;;24.70;65.56;99780.09;1582575;89;21083;-63
2023/08/06 04:02:20;;;;;;;11.12;9.10;;;;;;;24.67;65.66;99778.73;1553714;91;21136;-65
2023/08/06 04:04:50;;;;;;;10.43;9.00;;;;;;;24.64;65.58;99778.77;1563707;88;21115;-63
2023/08/06 04:07:19;;;;;;;12.47;8.43;;;;;;;24.64;65.61;99778.77;1625226;87;21079;-64
2023/08/06 04:09:58;;;;;;;13.43;9.05;;;;;;;24.67;65.59;99780.13;1625048;88;21151;-64
2023/08/06 04:12:28;;;;;;;10.85;8.53;;;;;;;24.71;65.53;99778.41;1624924;88;21067;-65
2023/08/06 04:14:59;;;;;;;11.05;8.65;;;;;;;24.74;65.53;99778.38;1624998;88;21079;-64
2023/08/06 04:17:27;;;;;;;11.35;8.65;;;;;;;24.76;65.34;99775.52;1624824;88;21098;-64
2023/08/06 04:20:02;;;;;;;9.85;8.85;;;;;;;24.80;65.12;99776.58;1624882;88;21519;-65
2023/08/06 04:22:27;;;;;;;9.53;8.53;;;;;;;24.84;64.92;99772.59;1624692;87;21143;-64
2023/08/06 04:24:56;;;;;;;11.25;8.40;;;;;;;24.86;64.82;99772.54;1625151;87;21075;-64
2023/08/06 04:27:26;;;;;;;10.45;8.75;;;;;;;24.89;64.75;99773.33;1624905;87;21083;-64
2023/08/06 04:29:55;;;;;;;9.85;8.43;;;;;;;24.94;64.61;99767.63;1605507;88;21076;-65
2023/08/06 04:32:26;;;;;;;11.40;8.65;;;;;;;24.98;64.53;99762.84;1602093;89;21152;-65
2023/08/06 04:34:56;;;;;;;12.37;8.55;;;;;;;25.03;64.33;99758.54;1602336;89;21072;-65
2023/08/06 04:37:25;;;;;;;10.28;7.90;;;;;;;25.06;64.19;99761.55;1602311;89;21168;-65
2023/08/06 04:39:55;;;;;;;10.08;8.38;;;;;;;25.09;64.01;99755.33;1602223;89;21156;-64
2023/08/06 04:42:25;;;;;;;12.37;8.98;;;;;;;25.12;63.91;99759.48;1602256;89;21092;-63
2023/08/06 04:44:53;;;;;;;14.00;9.20;;;;;;;25.13;63.59;99759.74;1602214;89;21105;-63
2023/08/06 04:47:23;;;;;;;9.18;8.28;;;;;;;25.16;63.62;99752.11;1602074;89;21112;-64
2023/08/06 04:49:51;;;;;;;11.45;8.95;;;;;;;25.19;63.53;99745.89;1602194;89;21053;-64
2023/08/06 04:52:20;;;;;;;11.80;9.00;;;;;;;25.23;63.39;99745.52;1602421;89;21116;-63
2023/08/06 04:54:50;;;;;;;11.45;9.05;;;;;;;25.28;63.27;99737.84;1602068;89;21116;-63
2023/08/06 04:57:19;;;;;;;10.93;9.13;;;;;;;25.33;62.84;99742.52;1602223;89;21103;-64
2023/08/06 04:59:48;;;;;;;12.82;9.93;;;;;;;25.38;62.67;99735.43;1602018;89;21176;-65
2023/08/06 05:02:17;;;;;;;12.28;9.18;;;;;;;25.42;62.35;99739.84;1602292;89;21096;-65
2023/08/06 05:04:46;;;;;;;13.60;9.20;;;;;;;25.45;62.32;99734.44;1602219;89;21089;-64
2023/08/06 05:07:15;;;;;;;9.78;8.78;;;;;;;25.51;62.08;99726.75;1602137;89;21148;-64
2023/08/06 05:09:44;;;;;;;12.33;9.08;;;;;;;25.57;61.84;99724.09;1602010;89;21493;-63
2023/08/06 05:12:13;;;;;;;12.90;9.05;;;;;;;25.63;61.38;99725.64;1602110;89;21093;-63
2023/08/06 05:14:42;;;;;;;9.40;8.38;;;;;;;25.71;61.25;99726.91;1602280;89;21488;-64
2023/08/06 05:17:11;;;;;;;9.68;8.68;;;;;;;25.79;61.10;99726.99;1602206;89;21115;-64
2023/08/06 05:19:40;;;;;;;9.83;8.60;;;;;;;25.89;60.59;99717.51;1602203;89;21480;-64
2023/08/06 05:22:09;;;;;;;10.15;8.33;;;;;;;25.98;60.25;99721.80;1602098;89;21052;-63
2023/08/06 05:24:38;;;;;;;9.23;8.33;;;;;;;26.07;59.65;99716.55;1602112;89;21068;-63
2023/08/06 05:27:07;;;;;;;10.05;9.05;;;;;;;26.18;59.08;99717.96;1602263;89;21101;-63
2023/08/06 05:29:36;;;;;;;14.40;8.93;;;;;;;26.31;58.92;99710.63;1604805;89;21156;-64
2023/08/06 05:32:06;;;;;;;10.25;9.15;;;;;;;26.54;58.54;99715.69;1606962;89;21089;-64
2023/08/06 05:34:35;;;;;;;15.43;8.98;;;;;;;26.79;57.51;99714.22;1606808;89;21140;-63
2023/08/06 05:37:05;;;;;;;10.13;8.50;;;;;;;27.02;56.63;99720.08;1606769;89;21081;-64
2023/08/06 05:39:34;;;;;;;11.57;9.03;;;;;;;27.21;55.80;99707.75;1606969;89;21116;-64
2023/08/06 05:42:04;;;;;;;10.85;9.15;;;;;;;27.30;55.87;99710.02;1606757;89;21481;-64
2023/08/06 05:44:33;;;;;;;9.28;8.38;;;;;;;27.37;54.89;99701.38;1606940;88;21076;-64
2023/08/06 05:47:02;;;;;;;13.45;8.58;;;;;;;27.38;54.93;99708.67;1606822;89;21124;-63
2023/08/06 05:49:32;;;;;;;11.63;8.65;;;;;;;27.40;54.55;99698.49;1607032;88;21194;-63
2023/08/06 05:52:01;;;;;;;15.68;8.65;;;;;;;27.38;54.51;99693.19;1606882;89;21123;-65
2023/08/06 05:54:29;;;;;;;9.30;8.15;;;;;;;27.38;54.60;99692.36;1606821;89;21064;-64
2023/08/06 05:56:58;;;;;;;11.35;8.58;;;;;;;27.41;54.43;99693.95;1606818;89;21100;-64
2023/08/06 05:59:27;;;;;;;10.55;8.98;;;;;;;27.44;54.31;99679.22;1607020;88;21500;-63
2023/08/06 06:01:55;;;;;;;10.18;8.63;;;;;;;27.45;53.82;99680.87;1606755;89;21099;-64
2023/08/06 06:04:25;;;;;;;11.90;8.55;;;;;;;27.46;53.64;99678.31;1606912;89;21531;-64
2023/08/06 06:06:54;;;;;;;10.48;9.00;;;;;;;27.47;53.35;99676.33;1606843;89;21089;-65
2023/08/06 06:09:22;;;;;;;11.85;8.48;;;;;;;27.50;53.40;99665.83;1607025;89;21112;-64
2023/08/06 06:11:51;;;;;;;9.90;8.25;;;;;;;27.56;52.64;99665.92;1606954;89;21071;-64
2023/08/06 06:14:22;;;;;;;14.87;8.83;;;;;;;27.63;52.52;99668.28;1606795;89;21383;-64
2023/08/06 06:16:50;;;;;;;10.38;8.28;;;;;;;27.69;52.50;99652.88;1606995;88;21116;-64
2023/08/06 06:19:19;;;;;;;10.28;8.70;;;;;;;27.72;52.14;99656.45;1606858;89;21060;-63
2023/08/06 06:21:48;;;;;;;10.65;8.45;;;;;;;27.73;51.86;99656.12;1606754;89;21112;-64
2023/08/06 06:24:17;;;;;;;11.60;8.35;;;;;;;27.72;52.15;99657.28;1606891;89;21068;-64
2023/08/06 06:26:46;;;;;;;10.60;7.78;;;;;;;27.74;52.46;99650.73;1606962;89;21124;-65
2023/08/06 06:29:15;;;;;;;10.65;7.97;;;;;;;27.82;51.87;99646.27;1605447;89;21127;-64
2023/08/06 06:31:44;;;;;;;8.98;7.85;;;;;;;27.98;51.34;99655.08;1602427;89;21111;-64
2023/08/06 06:34:13;;;;;;;13.25;7.90;;;;;;;28.21;51.06;99640.23;1602358;89;21080;-64
2023/08/06 06:36:42;;;;;;;11.45;8.25;;;;;;;28.59;51.07;99641.75;1602349;89;21072;-64
2023/08/06 06:39:11;;;;;;;10.13;8.18;;;;;;;28.97;49.90;99631.96;1602465;89;21093;-64
2023/08/06 06:41:40;;;;;;;9.90;7.80;;;;;;;29.35;48.64;99632.78;1602053;89;21120;-63
2023/08/06 06:44:11;;;;;;;9.30;7.58;;;;;;;29.78;47.86;99627.43;1602061;89;21100;-63
2023/08/06 06:46:40;;;;;;;9.33;8.28;;;;;;;30.22;46.92;99623.69;1602138;89;21092;-64
2023/08/06 06:49:08;;;;;;;12.73;8.23;;;;;;;30.55;45.40;99620.25;1602135;89;21068;-64
2023/08/06 06:51:37;;;;;;;8.95;7.72;;;;;;;30.90;44.59;99609.40;1602084;89;21794;-63
2023/08/06 06:54:08;;;;;;;10.32;7.58;;;;;;;31.30;44.19;99612.16;1602057;89;21543;-64
2023/08/06 06:56:38;;;;;;;14.05;7.65;;;;;;;31.68;42.97;99611.73;1602055;89;21520;-63
2023/08/06 06:59:07;;;;;;;8.43;7.50;;;;;;;31.88;42.17;99598.04;1602254;89;21104;-64
2023/08/06 07:01:36;;;;;;;9.98;7.47;;;;;;;32.05;41.47;99603.99;1602121;89;21980;-64
2023/08/06 07:04:05;;;;;;;8.98;7.72;;;;;;;32.22;41.34;99591.51;1602218;89;21123;-63
2023/08/06 07:06:34;;;;;;;8.20;7.05;;;;;;;32.42;40.97;99585.63;1602263;89;21064;-65
2023/08/06 07:09:03;;;;;;;10.25;8.10;;;;;;;32.72;40.36;99583.81;1602354;89;21088;-63
2023/08/06 07:11:32;;;;;;;9.78;7.92;;;;;;;33.02;39.58;99582.17;1602142;89;21518;-64
2023/08/06 07:14:01;;;;;;;10.88;7.00;;;;;;;33.22;39.32;99576.59;1602250;89;21068;-63
2023/08/06 07:16:31;;;;;;;10.30;6.92;;;;;;;33.43;38.96;99578.53;1602280;89;21093;-64
2023/08/06 07:18:59;;;;;;;10.10;7.03;;;;;;;33.65;38.66;99567.87;1602280;89;21088;-64
2023/08/06 07:21:28;;;;;;;13.50;9.38;;;;;;;33.90;38.01;99562.77;1602165;89;21060;-64
2023/08/06 07:23:59;;;;;;;8.63;6.55;;;;;;;34.10;37.53;99559.31;1602398;89;21121;-64
2023/08/06 07:26:28;;;;;;;8.80;6.85;;;;;;;34.28;37.46;99558.23;1602110;89;21156;-63
2023/08/06 07:28:57;;;;;;;8.43;6.67;;;;;;;34.45;36.93;99544.15;1602191;89;21053;-63
2023/08/06 07:31:25;;;;;;;9.38;6.78;;;;;;;34.58;36.50;99547.06;1601963;89;21061;-63
2023/08/06 07:33:55;;;;;;;10.45;6.58;;;;;;;34.73;36.33;99547.52;1602060;89;21960;-63
2023/08/06 07:36:24;;;;;;;12.98;7.15;;;;;;;34.93;36.10;99552.56;1602311;89;21056;-63
2023/08/06 07:38:56;;;;;;;7.78;6.58;;;;;;;35.12;35.74;99539.67;1602072;89;21108;-64
2023/08/06 07:41:45;;;;;;;8.95;6.25;;;;;;;35.31;35.54;99537.30;1602062;89;21064;-63
2023/08/06 07:44:15;;;;;;;8.80;6.53;;;;;;;35.43;35.20;99539.13;1602075;89;21159;-63
2023/08/06 07:46:43;;;;;;;9.48;6.78;;;;;;;35.64;35.17;99531.47;1602383;89;21092;-63
2023/08/06 07:49:13;;;;;;;7.37;6.08;;;;;;;35.80;34.47;99522.13;1602215;89;21548;-64
2023/08/06 07:51:43;;;;;;;9.68;6.15;;;;;;;35.80;34.37;99512.16;1602250;89;21080;-63
2023/08/06 07:54:13;;;;;;;10.95;6.40;;;;;;;35.72;34.24;99530.34;1602243;89;21065;-63
2023/08/06 07:56:42;;;;;;;8.58;6.05;;;;;;;35.73;33.78;99524.87;1602232;89;21111;-64
2023/08/06 07:59:12;;;;;;;10.13;5.95;;;;;;;35.74;34.06;99523.05;1602173;89;21069;-64
2023/08/06 08:01:41;;;;;;;11.08;5.80;;;;;;;35.89;33.91;99514.13;1602053;89;21116;-64
2023/08/06 08:04:10;;;;;;;7.75;5.92;;;;;;;36.06;33.67;99509.23;1602103;89;21512;-64
2023/08/06 08:06:38;;;;;;;9.15;6.33;;;;;;;36.15;33.31;99508.30;1602350;89;21085;-64
2023/08/06 08:09:07;;;;;;;9.50;5.75;;;;;;;36.19;32.94;99510.59;1602186;89;21060;-64
2023/08/06 08:11:36;;;;;;;11.15;6.10;;;;;;;36.22;32.99;99508.98;1602117;89;21497;-63
2023/08/06 08:14:06;;;;;;;7.17;5.65;;;;;;;36.34;32.74;99500.17;1602113;89;21491;-62
2023/08/06 08:16:34;;;;;;;9.25;5.92;;;;;;;36.35;32.73;99491.00;1601384;89;21046;-67
2023/08/06 08:19:03;;;;;;;8.08;5.55;;;;;;;36.36;32.59;99492.03;1602210;89;21026;-67
2023/08/06 08:21:33;;;;;;;7.45;6.00;;;;;;;36.30;32.47;99492.78;1609530;88;21622;-67
2023/08/06 08:24:01;;;;;;;11.33;6.00;;;;;;;36.35;32.46;99491.82;1587698;89;21126;-65
2023/08/06 08:26:31;;;;;;;8.83;5.95;;;;;;;36.38;32.83;99481.66;1589235;90;21077;-67
2023/08/06 08:29:00;;;;;;;8.93;6.45;;;;;;;36.54;32.67;99487.94;1587778;90;21102;-67
2023/08/06 08:31:29;;;;;;;7.83;6.05;;;;;;;36.64;32.51;99482.11;1610491;89;21575;-68
2023/08/06 08:33:58;;;;;;;8.95;5.67;;;;;;;36.75;32.52;99480.98;1584822;89;21077;-65
2023/08/06 08:36:28;;;;;;;7.70;6.33;;;;;;;36.83;32.13;99474.13;1584289;90;21107;-67
2023/08/06 08:38:58;;;;;;;6.60;5.90;;;;;;;36.73;32.82;99474.84;1610967;89;21055;-66
2023/08/06 08:41:30;;;;;;;10.82;6.45;;;;;;;36.84;32.62;99469.23;1605889;89;21491;-66
2023/08/06 08:44:02;;;;;;;10.28;6.55;;;;;;;37.00;31.85;99471.80;1606050;89;21126;-66
2023/08/06 08:46:35;;;;;;;9.58;6.08;;;;;;;36.91;32.29;99478.47;1605865;89;21043;-65
2023/08/06 08:49:04;;;;;;;13.95;6.20;;;;;;;37.02;32.08;99477.31;1606003;89;21058;-66
2023/08/06 08:51:36;;;;;;;11.75;5.97;;;;;;;37.12;31.51;99465.16;1606056;89;21150;-66
2023/08/06 08:54:05;;;;;;;6.85;5.47;;;;;;;37.12;31.51;99471.48;1605943;89;21510;-65
2023/08/06 08:56:33;;;;;;;6.58;5.33;;;;;;;37.09;31.90;99466.57;1633030;88;21012;-65
2023/08/06 08:59:02;;;;;;;11.65;6.47;;;;;;;36.92;32.11;99466.64;1637093;88;21038;-67
2023/08/06 09:01:30;;;;;;;10.15;6.12;;;;;;;36.90;32.16;99462.55;1637076;88;21041;-67
2023/08/06 09:03:59;;;;;;;9.68;6.15;;;;;;;36.90;32.13;99461.12;1637153;88;21074;-67
2023/08/06 09:06:28;;;;;;;12.40;6.10;;;;;;;36.87;32.25;99460.48;1637249;88;21042;-67
2023/08/06 09:09:09;;;;;;;8.70;5.72;;;;;;;36.77;32.45;99458.59;1637328;88;21089;-68
2023/08/06 09:11:45;;;;;;;9.45;6.03;;;;;;;36.71;32.41;99445.05;1637426;88;21081;-69
2023/08/06 09:14:14;;;;;;;8.10;6.28;;;;;;;36.55;32.68;99451.66;1637452;88;21065;-69
2023/08/06 09:16:42;;;;;;;10.43;6.10;;;;;;;36.46;33.01;99444.86;1637270;88;21070;-70
2023/08/06 09:19:18;;;;;;;9.83;6.42;;;;;;;36.46;33.08;99439.98;1637166;88;21018;-68
2023/08/06 09:21:48;;;;;;;9.25;6.30;;;;;;;36.46;33.08;99441.41;1637263;88;21696;-68
2023/08/06 09:24:17;;;;;;;9.03;6.50;;;;;;;36.45;33.15;99431.81;1619234;88;21125;-68
2023/08/06 09:26:47;;;;;;;8.73;6.08;;;;;;;36.37;33.22;99431.50;1597986;88;21502;-67
2023/08/06 09:29:17;;;;;;;9.25;6.60;;;;;;;36.26;33.89;99431.38;1637436;88;21097;-69
2023/08/06 09:31:48;;;;;;;8.90;6.20;;;;;;;36.16;33.78;99422.13;1637130;87;21150;-68
2023/08/06 09:34:22;;;;;;;10.75;6.45;;;;;;;36.02;33.90;99417.72;1637301;88;21025;-70
2023/08/06 09:36:55;;;;;;;11.85;6.55;;;;;;;35.88;34.17;99414.13;1637448;87;21137;-66
2023/08/06 09:39:30;;;;;;;9.45;6.08;;;;;;;35.81;34.11;99408.34;1637365;88;21050;-66
2023/08/06 09:42:01;;;;;;;8.57;5.87;;;;;;;35.78;34.20;99405.64;1637411;86;21053;-66
2023/08/06 09:44:33;;;;;;;12.30;6.33;;;;;;;35.72;33.85;99390.68;1637383;88;21054;-67
2023/08/06 09:47:03;;;;;;;7.60;6.08;;;;;;;35.56;34.11;99403.73;1637388;88;21462;-66
2023/08/06 09:49:38;;;;;;;11.78;6.58;;;;;;;35.45;34.24;99387.95;1637511;88;21170;-68
2023/08/06 09:52:08;;;;;;;9.65;6.33;;;;;;;35.36;34.28;99391.70;1637219;88;21074;-69
2023/08/06 09:54:38;;;;;;;8.58;5.72;;;;;;;35.24;34.53;99381.97;1637279;88;21045;-67
2023/08/06 09:57:06;;;;;;;10.05;6.10;;;;;;;35.18;34.60;99375.80;1637332;87;21057;-68
2023/08/06 09:59:35;;;;;;;9.58;6.65;;;;;;;35.17;34.90;99381.88;1637316;87;21137;-68
2023/08/06 10:02:09;;;;;;;11.55;6.10;;;;;;;35.17;35.12;99379.03;1637331;88;21049;-69
2023/08/06 10:04:38;;;;;;;9.00;6.55;;;;;;;35.14;35.07;99376.36;1637213;88;21090;-69
2023/08/06 10:07:08;;;;;;;9.75;6.47;;;;;;;35.09;35.36;99368.13;1637161;88;21121;-68
2023/08/06 10:09:38;;;;;;;10.32;6.55;;;;;;;35.04;34.87;99366.22;1613359;88;21117;-69
2023/08/06 10:12:08;;;;;;;12.00;8.18;;;;;;;34.99;34.95;99369.41;1637208;88;21078;-68
2023/08/06 10:14:37;;;;;;;11.40;6.75;;;;;;;34.92;34.92;99367.30;1614134;88;21033;-68
2023/08/06 10:17:06;;;;;;;7.25;5.97;;;;;;;34.86;35.05;99364.56;1637269;88;21085;-65
2023/08/06 10:19:35;;;;;;;13.58;6.35;;;;;;;34.84;35.33;99359.26;1637498;88;21164;-67
2023/08/06 10:22:16;;;;;;;7.70;6.30;;;;;;;34.83;34.97;99349.69;1637374;88;21041;-65
2023/08/06 10:24:53;;;;;;;8.23;6.00;;;;;;;34.78;34.81;99347.96;1637502;86;21129;-66
2023/08/06 10:27:32;;;;;;;9.03;6.22;;;;;;;34.72;34.95;99343.81;1637354;88;21038;-66
2023/08/06 10:30:30;;;;;;;13.00;6.40;;;;;;;34.71;35.10;99334.23;1637319;87;21114;-67
2023/08/06 10:33:01;;;;;;;10.13;6.05;;;;;;;34.76;35.19;99339.59;1622945;88;21094;-66
2023/08/06 10:35:50;;;;;;;9.28;6.30;;;;;;;34.75;35.00;99330.23;1622950;88;21519;-66
2023/08/06 10:38:21;;;;;;;11.10;5.97;;;;;;;34.74;34.98;99327.77;1622821;88;21482;-67
2023/08/06 10:40:59;;;;;;;11.73;6.42;;;;;;;34.75;34.90;99320.88;1585465;89;21600;-66
2023/08/06 10:43:35;;;;;;;8.95;5.90;;;;;;;34.73;35.22;99324.11;1586140;89;21056;-67
2023/08/06 10:46:06;;;;;;;11.80;6.30;;;;;;;34.79;35.06;99316.88;1585870;90;21514;-67
2023/08/06 10:48:40;;;;;;;11.45;6.40;;;;;;;34.80;34.84;99319.94;1567837;90;21246;-66
2023/08/06 10:51:10;;;;;;;10.68;6.30;;;;;;;34.80;35.00;99315.66;1586101;90;21593;-67
2023/08/06 10:53:47;;;;;;;9.75;6.33;;;;;;;34.86;34.94;99311.91;1585793;89;21573;-66
2023/08/06 10:56:22;;;;;;;9.15;6.40;;;;;;;34.81;34.75;99305.92;1586033;90;21083;-67
2023/08/06 10:58:51;;;;;;;11.55;6.50;;;;;;;34.80;35.07;99301.44;1586023;90;21111;-66
2023/08/06 11:01:20;;;;;;;7.95;5.78;;;;;;;34.82;35.35;99289.09;1586024;90;21558;-67
2023/08/06 11:03:50;;;;;;;9.33;5.70;;;;;;;34.82;35.09;99286.24;1586114;89;21123;-67
2023/08/06 11:06:22;;;;;;;8.93;6.05;;;;;;;34.78;34.65;99285.34;1586091;90;21515;-67
2023/08/06 11:08:54;;;;;;;11.60;6.22;;;;;;;34.75;34.86;99274.73;1586049;90;21111;-66
2023/08/06 11:11:23;;;;;;;8.48;5.87;;;;;;;34.77;34.96;99273.75;1586051;90;21127;-68
2023/08/06 11:13:52;;;;;;;8.23;5.72;;;;;;;34.77;34.75;99264.39;1585862;90;21088;-66
2023/08/06 11:16:27;;;;;;;9.15;5.45;;;;;;;34.74;34.72;99261.72;1585970;90;21060;-68
2023/08/06 11:18:54;;;;;;;10.53;5.55;;;;;;;34.71;34.56;99257.41;1585669;89;21111;-68
2023/08/06 11:21:22;;;;;;;5.95;5.35;;;;;;;34.68;34.58;99255.33;1568546;90;21079;-67
2023/08/06 11:23:52;;;;;;;9.23;5.62;;;;;;;34.64;34.42;99256.70;1586063;89;21095;-67
2023/08/06 11:26:23;;;;;;;10.88;5.80;;;;;;;34.58;34.80;99246.87;1586054;90;21036;-66
2023/08/06 11:28:51;;;;;;;9.73;5.55;;;;;;;34.56;35.04;99242.17;1585783;90;21144;-67
2023/08/06 11:31:22;;;;;;;6.67;5.20;;;;;;;34.61;34.98;99243.25;1590818;90;21135;-68
2023/08/06 11:33:55;;;;;;;9.65;5.55;;;;;;;34.63;35.12;99239.42;1641200;87;21552;-67
2023/08/06 11:36:38;;;;;;;11.33;5.50;;;;;;;34.64;35.08;99243.30;1641256;87;21045;-72
2023/08/06 11:39:07;;;;;;;9.85;5.50;;;;;;;34.63;34.98;99243.09;1641065;87;21555;-63
2023/08/06 11:41:40;;;;;;;7.80;5.47;;;;;;;34.56;34.95;99246.44;1640938;87;21113;-67
2023/08/06 11:44:12;;;;;;;7.47;5.30;;;;;;;34.49;35.33;99230.70;1617430;87;21038;-69